Time;durP1;ratioP1;P1;durP2;ratioP2;P2;SDS_P1;SDS_P2;PMS_P1;PMS_P2;Temp;Humidity;BMP_temperature;BMP_pressure;BME280_temperature;BME280_humidity;BME280_pressure;Samples;Min_cycle;Max_cycle;Signal;HPM_P1;HPM_P2
2023/07/03 00:01:21;;;;;;;17.20;10.02;;;;;;;24.61;100.00;100420.28;5082540;28;20036;-70
2023/07/03 00:04:10;;;;;;;14.20;9.57;;;;;;;25.03;100.00;100422.22;5077409;28;20039;-72
2023/07/03 00:06:56;;;;;;;13.00;9.40;;;;;;;24.75;100.00;100414.69;5077923;28;20024;-71
2023/07/03 00:09:42;;;;;;;14.68;9.30;;;;;;;24.49;100.00;100406.03;5049956;28;20082;-72
2023/07/03 00:12:28;;;;;;;11.90;9.30;;;;;;;24.32;100.00;100414.56;5076625;28;20028;-71
2023/07/03 00:15:14;;;;;;;16.90;9.20;;;;;;;24.48;100.00;100422.22;5077733;28;20043;-71
2023/07/03 00:18:00;;;;;;;15.63;9.75;;;;;;;24.80;100.00;100423.22;5077239;28;20028;-71
2023/07/03 00:20:46;;;;;;;13.05;9.10;;;;;;;24.90;100.00;100418.78;5093886;28;20123;-71
2023/07/03 00:23:32;;;;;;;13.50;9.82;;;;;;;24.52;100.00;100429.03;5097478;28;20471;-71
2023/07/03 00:26:17;;;;;;;14.88;8.95;;;;;;;24.57;100.00;100434.88;5097327;28;20028;-72
2023/07/03 00:29:03;;;;;;;12.80;9.35;;;;;;;24.84;100.00;100428.22;5108529;28;20016;-71
2023/07/03 00:31:50;;;;;;;14.77;9.40;;;;;;;24.55;100.00;100424.28;5111649;28;20062;-71
2023/07/03 00:34:36;;;;;;;13.75;9.90;;;;;;;24.54;100.00;100427.94;5117471;28;20037;-71
2023/07/03 00:37:21;;;;;;;16.35;9.65;;;;;;;24.80;100.00;100428.56;5117806;28;20382;-72
2023/07/03 00:40:10;;;;;;;14.10;9.60;;;;;;;24.84;100.00;100435.38;5117402;28;20337;-72
2023/07/03 00:42:56;;;;;;;14.73;8.85;;;;;;;24.87;100.00;100438.66;5117509;28;20355;-71
2023/07/03 00:45:43;;;;;;;12.82;9.30;;;;;;;24.62;100.00;100430.03;5117451;28;20375;-71
2023/07/03 00:48:28;;;;;;;15.70;9.60;;;;;;;24.89;100.00;100435.88;5112232;28;20095;-71
2023/07/03 00:51:16;;;;;;;14.75;9.60;;;;;;;24.72;100.00;100439.06;5116191;28;20106;-71
2023/07/03 00:54:01;;;;;;;12.27;9.05;;;;;;;24.87;100.00;100440.50;5117900;28;20111;-71
2023/07/03 00:56:47;;;;;;;17.55;9.88;;;;;;;24.40;100.00;100438.91;5117867;28;20038;-71
2023/07/03 00:59:33;;;;;;;13.25;9.23;;;;;;;24.79;100.00;100438.44;5134059;28;20020;-70
2023/07/03 01:02:44;;;;;;;12.98;8.88;;;;;;;24.96;100.00;100439.75;5124604;28;20022;-70
2023/07/03 01:05:39;;;;;;;13.82;9.35;;;;;;;24.45;100.00;100439.38;5124845;28;20452;-71
2023/07/03 01:08:26;;;;;;;14.27;9.55;;;;;;;24.22;100.00;100434.16;5116910;28;20035;-71
2023/07/03 01:11:12;;;;;;;18.65;10.05;;;;;;;24.63;100.00;100445.16;5116394;28;20035;-69
2023/07/03 01:14:01;;;;;;;13.05;9.27;;;;;;;24.38;100.00;100440.84;5116229;28;20035;-70
2023/07/03 01:16:48;;;;;;;13.88;9.65;;;;;;;24.43;100.00;100443.16;5123087;28;20027;-71
2023/07/03 01:19:34;;;;;;;13.68;9.30;;;;;;;24.74;100.00;100439.78;5109704;28;20044;-70
2023/07/03 01:22:31;;;;;;;14.13;9.63;;;;;;;24.01;100.00;100441.13;5080084;28;20031;-70
2023/07/03 01:25:20;;;;;;;14.60;9.90;;;;;;;24.03;100.00;100441.88;5095992;28;20090;-71
2023/07/03 01:28:11;;;;;;;13.25;9.35;;;;;;;24.13;100.00;100433.03;5095320;28;20395;-71
2023/07/03 01:30:58;;;;;;;15.05;9.55;;;;;;;24.07;100.00;100432.66;5094768;28;20020;-70
2023/07/03 01:33:45;;;;;;;11.23;9.20;;;;;;;24.21;100.00;100407.66;5095694;28;20360;-71
2023/07/03 01:36:32;;;;;;;14.55;9.38;;;;;;;-140.66;100.00;55571.53;5086570;28;20371;-71
2023/07/03 01:39:18;;;;;;;13.07;10.10;;;;;;;-140.66;100.00;55571.53;5088083;28;20024;-71
2023/07/03 01:42:05;;;;;;;21.63;10.20;;;;;;;-140.66;100.00;55571.53;5094401;28;20460;-72
2023/07/03 01:44:51;;;;;;;14.35;9.80;;;;;;;-140.66;100.00;55571.53;5096153;28;20426;-71
2023/07/03 01:47:37;;;;;;;14.38;8.88;;;;;;;-140.66;100.00;55571.53;5095264;28;20039;-71
2023/07/03 01:50:26;;;;;;;14.43;9.75;;;;;;;-140.66;100.00;55571.53;5095625;28;20039;-70
2023/07/03 01:53:16;;;;;;;16.80;9.80;;;;;;;-140.66;100.00;55571.53;5096308;28;20115;-71
2023/07/03 01:56:11;;;;;;;15.27;9.35;;;;;;;-140.66;100.00;55571.53;5094824;28;20433;-71
2023/07/03 01:59:08;;;;;;;13.88;10.27;;;;;;;-140.66;100.00;55571.53;5095188;28;20031;-71
2023/07/03 02:02:08;;;;;;;15.20;9.20;;;;;;;-140.66;100.00;55571.53;5094927;28;20033;-71
2023/07/03 02:05:14;;;;;;;14.05;9.75;;;;;;;-140.66;100.00;55571.53;5095263;28;20031;-71
2023/07/03 02:08:01;;;;;;;15.30;10.02;;;;;;;-140.66;100.00;55571.53;5078915;28;20035;-71
2023/07/03 02:10:47;;;;;;;14.25;9.80;;;;;;;-140.66;100.00;55571.53;5094187;28;20052;-72
2023/07/03 02:13:32;;;;;;;14.95;9.77;;;;;;;-140.66;100.00;55571.53;5095337;28;20024;-71
2023/07/03 02:16:18;;;;;;;16.48;10.10;;;;;;;-140.66;100.00;55571.53;5081264;28;20341;-71
2023/07/03 02:19:04;;;;;;;13.95;10.00;;;;;;;-140.66;100.00;55571.53;5094464;28;20484;-71
2023/07/03 02:21:50;;;;;;;18.42;10.80;;;;;;;-140.66;100.00;55571.53;5094752;28;20024;-71
2023/07/03 02:24:36;;;;;;;13.75;10.10;;;;;;;-140.66;100.00;55571.53;5094801;28;20360;-71
2023/07/03 02:27:22;;;;;;;14.25;10.20;;;;;;;-140.66;100.00;55571.53;5079939;28;20388;-72
2023/07/03 02:30:08;;;;;;;14.93;10.75;;;;;;;-140.66;100.00;55571.53;5094436;28;20388;-70
2023/07/03 02:32:54;;;;;;;14.52;10.77;;;;;;;-140.66;100.00;55571.53;5094245;28;20023;-70
2023/07/03 02:35:41;;;;;;;16.15;11.15;;;;;;;-140.66;100.00;55571.53;5094328;28;20456;-70
2023/07/03 02:38:26;;;;;;;13.32;10.50;;;;;;;-140.66;100.00;55571.53;5095297;28;20028;-70
2023/07/03 02:41:12;;;;;;;16.95;11.13;;;;;;;-140.66;100.00;55571.53;5093755;28;20028;-71
2023/07/03 02:43:58;;;;;;;18.00;11.80;;;;;;;-140.66;100.00;55571.53;5094658;28;20032;-70
2023/07/03 02:46:44;;;;;;;14.73;10.75;;;;;;;-140.66;100.00;55571.53;5095450;28;20035;-71
2023/07/03 02:49:30;;;;;;;15.75;10.98;;;;;;;-140.66;100.00;55571.53;5080220;28;20110;-70
2023/07/03 02:52:15;;;;;;;15.05;11.85;;;;;;;-140.66;100.00;55571.53;5093642;28;20454;-71
2023/07/03 02:55:01;;;;;;;15.45;11.93;;;;;;;-140.66;100.00;55571.53;5093811;28;20509;-71
2023/07/03 02:57:47;;;;;;;16.25;11.80;;;;;;;-140.66;100.00;55571.53;5094210;28;20024;-71
2023/07/03 03:00:32;;;;;;;14.43;11.65;;;;;;;-140.66;100.00;55571.53;5093406;28;20111;-71
2023/07/03 03:03:18;;;;;;;17.35;12.02;;;;;;;-140.66;100.00;55571.53;5093928;28;20043;-71
2023/07/03 03:06:04;;;;;;;19.27;13.02;;;;;;;-140.66;100.00;55571.53;5079363;28;20050;-72
2023/07/03 03:08:50;;;;;;;16.63;12.82;;;;;;;-140.66;100.00;55571.53;5093535;28;20111;-71
2023/07/03 03:11:36;;;;;;;17.17;12.48;;;;;;;-140.66;100.00;55571.53;5094248;28;20444;-71
2023/07/03 03:14:22;;;;;;;17.33;12.45;;;;;;;-140.66;100.00;55571.53;5079431;28;20040;-70
2023/07/03 03:17:07;;;;;;;15.38;12.55;;;;;;;-140.66;100.00;55571.53;5093591;28;20153;-70
2023/07/03 03:19:53;;;;;;;19.45;14.02;;;;;;;-140.66;100.00;55571.53;5104408;28;20472;-71
2023/07/03 03:22:40;;;;;;;15.80;13.68;;;;;;;-140.66;100.00;55571.53;5115058;28;20055;-71
2023/07/03 03:25:26;;;;;;;19.17;14.50;;;;;;;-140.66;100.00;55571.53;5114854;28;20027;-70
2023/07/03 03:28:12;;;;;;;22.75;15.23;;;;;;;-140.66;100.00;55571.53;5100128;28;20051;-72
2023/07/03 03:30:57;;;;;;;20.80;14.57;;;;;;;-140.66;100.00;55571.53;5100349;28;20103;-71
2023/07/03 03:33:43;;;;;;;20.23;14.93;;;;;;;-140.66;100.00;55571.53;5113880;28;20145;-71
2023/07/03 03:36:32;;;;;;;19.90;15.80;;;;;;;-140.66;100.00;55571.53;5114295;28;20421;-71
2023/07/03 03:39:18;;;;;;;19.02;15.30;;;;;;;-140.66;100.00;55571.53;5114698;28;20036;-71
2023/07/03 03:42:04;;;;;;;19.88;15.75;;;;;;;-140.66;100.00;55571.53;5101049;28;20063;-71
2023/07/03 03:44:50;;;;;;;19.85;15.30;;;;;;;-140.66;100.00;55571.53;5113608;28;20019;-72
2023/07/03 03:47:36;;;;;;;19.33;14.60;;;;;;;-140.66;100.00;55571.53;5114860;28;20023;-71
2023/07/03 03:50:22;;;;;;;20.33;15.45;;;;;;;-140.66;100.00;55571.53;5114167;28;20099;-70
2023/07/03 03:53:08;;;;;;;18.92;14.88;;;;;;;-140.66;100.00;55571.53;5113219;28;20049;-70
2023/07/03 03:55:53;;;;;;;18.65;15.05;;;;;;;-140.66;100.00;55571.53;5114689;28;20043;-71
2023/07/03 03:58:39;;;;;;;19.08;14.30;;;;;;;-140.66;100.00;55571.53;5099177;28;20024;-71
2023/07/03 04:01:25;;;;;;;17.50;14.43;;;;;;;-140.66;100.00;55571.53;5114170;28;20051;-71
2023/07/03 04:04:11;;;;;;;20.77;15.05;;;;;;;-140.66;100.00;55571.53;5114280;28;20080;-71
2023/07/03 04:06:57;;;;;;;19.60;14.38;;;;;;;-140.66;100.00;55571.53;5099631;28;20364;-71
2023/07/03 04:09:43;;;;;;;19.27;14.55;;;;;;;-140.66;100.00;55571.53;5114360;28;20023;-71
2023/07/03 04:12:28;;;;;;;19.70;14.88;;;;;;;-140.66;100.00;55571.53;5114842;28;20406;-71
2023/07/03 04:15:14;;;;;;;20.15;15.65;;;;;;;-140.66;100.00;55571.53;5099076;28;20565;-71
2023/07/03 04:18:00;;;;;;;20.35;14.90;;;;;;;-140.66;100.00;55571.53;5115055;28;20118;-70
2023/07/03 04:20:46;;;;;;;17.42;14.60;;;;;;;-140.66;100.00;55571.53;5098559;28;20070;-70
2023/07/03 04:23:32;;;;;;;22.02;15.30;;;;;;;-140.66;100.00;55571.53;5114908;28;20039;-70
2023/07/03 04:26:18;;;;;;;18.65;15.10;;;;;;;-140.66;100.00;55571.53;5117957;28;20027;-71
2023/07/03 04:29:04;;;;;;;19.15;15.02;;;;;;;-140.66;100.00;55571.53;5104198;28;20038;-71
2023/07/03 04:31:50;;;;;;;22.25;15.30;;;;;;;-140.66;100.00;55571.53;5101948;28;20031;-71
2023/07/03 04:34:35;;;;;;;18.00;14.70;;;;;;;-140.66;100.00;55571.53;5102330;28;20032;-72
2023/07/03 04:37:21;;;;;;;18.67;16.05;;;;;;;-140.66;100.00;55571.53;5101674;28;20088;-72
2023/07/03 04:40:08;;;;;;;19.52;15.13;;;;;;;-140.66;100.00;55571.53;5117366;28;20104;-71
2023/07/03 04:42:54;;;;;;;22.40;16.73;;;;;;;-140.66;100.00;55571.53;5117091;28;20065;-72
2023/07/03 04:45:45;;;;;;;21.48;17.45;;;;;;;-140.66;100.00;55571.53;5102322;28;20126;-71
2023/07/03 04:48:31;;;;;;;23.05;17.60;;;;;;;-140.66;100.00;55571.53;5117792;28;20027;-71
2023/07/03 04:51:17;;;;;;;22.55;17.25;;;;;;;-140.66;100.00;55571.53;5138904;27;20055;-71
2023/07/03 04:54:03;;;;;;;23.55;18.70;;;;;;;-140.66;100.00;55571.53;5102481;28;20042;-72
2023/07/03 04:56:49;;;;;;;23.17;18.38;;;;;;;-140.66;100.00;55571.53;5117567;28;20028;-72
2023/07/03 04:59:36;;;;;;;22.23;18.92;;;;;;;-140.66;100.00;55571.53;5116995;28;20024;-71
2023/07/03 05:02:22;;;;;;;23.75;18.55;;;;;;;-140.66;100.00;55571.53;5116365;28;20058;-71
2023/07/03 05:05:11;;;;;;;22.98;18.17;;;;;;;-140.66;100.00;55571.53;5115897;28;20042;-71
2023/07/03 05:07:57;;;;;;;21.77;18.15;;;;;;;-140.66;100.00;55571.53;5125209;28;20019;-72
2023/07/03 05:10:43;;;;;;;24.13;18.73;;;;;;;-140.66;100.00;55571.53;5125515;27;20043;-71
2023/07/03 05:13:29;;;;;;;28.02;18.92;;;;;;;-140.66;100.00;55571.53;5117482;28;20020;-71
2023/07/03 05:16:14;;;;;;;26.80;19.20;;;;;;;-140.66;100.00;55571.53;5117157;28;20359;-71
2023/07/03 05:19:00;;;;;;;23.73;19.70;;;;;;;-140.66;100.00;55571.53;5115807;28;20027;-72
2023/07/03 05:21:46;;;;;;;24.60;20.17;;;;;;;-140.66;100.00;55571.53;5116871;28;20054;-71
2023/07/03 05:24:32;;;;;;;28.35;19.95;;;;;;;-140.66;100.00;55571.53;5117359;28;20056;-70
2023/07/03 05:27:18;;;;;;;27.92;20.17;;;;;;;-140.66;100.00;55571.53;5115851;28;20513;-71
2023/07/03 05:30:05;;;;;;;24.45;19.95;;;;;;;-140.66;100.00;55571.53;5116346;28;20088;-72
2023/07/03 05:32:51;;;;;;;25.45;20.30;;;;;;;-140.66;100.00;55571.53;5115183;28;20024;-70
2023/07/03 05:35:38;;;;;;;22.80;19.35;;;;;;;-140.66;100.00;55571.53;5115179;28;20023;-71
2023/07/03 05:38:24;;;;;;;26.45;19.98;;;;;;;-140.66;100.00;55571.53;5117752;28;20407;-72
2023/07/03 05:41:10;;;;;;;25.48;19.02;;;;;;;-140.66;100.00;55571.53;5116672;28;20023;-71
2023/07/03 05:43:56;;;;;;;28.33;19.70;;;;;;;-140.66;100.00;55571.53;5117233;28;20037;-71
2023/07/03 05:46:41;;;;;;;27.35;20.67;;;;;;;-140.66;100.00;55571.53;5115697;28;20028;-72
2023/07/03 05:49:27;;;;;;;24.20;20.15;;;;;;;-140.66;100.00;55571.53;5116793;28;20128;-70
2023/07/03 05:52:13;;;;;;;25.38;20.23;;;;;;;-140.66;100.00;55571.53;5116308;28;20024;-70
2023/07/03 05:54:59;;;;;;;26.92;20.50;;;;;;;-140.66;100.00;55571.53;5115586;28;20027;-71
2023/07/03 05:57:45;;;;;;;24.65;19.85;;;;;;;-140.66;100.00;55571.53;5114877;28;20024;-70
2023/07/03 06:00:31;;;;;;;25.88;20.35;;;;;;;-140.66;100.00;55571.53;5101193;28;20399;-71
2023/07/03 06:03:18;;;;;;;24.80;19.92;;;;;;;-140.66;100.00;55571.53;5100801;28;20100;-71
2023/07/03 06:06:06;;;;;;;23.65;20.02;;;;;;;-140.66;100.00;55571.53;5101276;28;20038;-72
2023/07/03 06:08:51;;;;;;;24.70;19.40;;;;;;;-140.66;100.00;55571.53;5114678;28;20035;-71
2023/07/03 06:11:37;;;;;;;24.73;20.05;;;;;;;-140.66;100.00;55571.53;5116058;28;20043;-72
2023/07/03 06:14:23;;;;;;;25.05;20.50;;;;;;;-140.66;100.00;55571.53;5115528;28;20023;-71
2023/07/03 06:17:09;;;;;;;24.40;18.92;;;;;;;-140.66;100.00;55571.53;5115708;28;20032;-71
2023/07/03 06:19:55;;;;;;;28.73;19.33;;;;;;;-140.66;100.00;55571.53;5099898;28;20048;-71
2023/07/03 06:22:42;;;;;;;23.80;19.02;;;;;;;-140.66;100.00;55571.53;5114228;28;20439;-71
2023/07/03 06:25:28;;;;;;;29.40;20.75;;;;;;;-140.66;100.00;55571.53;5100731;28;20031;-72
2023/07/03 06:28:13;;;;;;;23.77;18.75;;;;;;;-140.66;100.00;55571.53;5115534;28;20065;-70
2023/07/03 06:30:59;;;;;;;26.58;18.98;;;;;;;-140.66;100.00;55571.53;5115951;28;20367;-71
2023/07/03 06:33:45;;;;;;;22.65;18.95;;;;;;;-140.66;100.00;55571.53;5114674;28;20015;-71
2023/07/03 06:36:32;;;;;;;23.20;18.98;;;;;;;-140.66;100.00;55571.53;5115022;28;20015;-71
2023/07/03 06:39:17;;;;;;;25.08;21.00;;;;;;;-140.66;100.00;55571.53;5099625;28;20031;-71
2023/07/03 06:42:03;;;;;;;23.25;19.35;;;;;;;-140.66;100.00;55571.53;5114687;28;20457;-71
2023/07/03 06:44:49;;;;;;;22.38;17.65;;;;;;;-140.66;100.00;55571.53;5115297;28;20040;-72
2023/07/03 06:47:35;;;;;;;23.48;18.30;;;;;;;-140.66;100.00;55571.53;5114969;28;20024;-71
2023/07/03 06:50:20;;;;;;;21.67;17.70;;;;;;;-140.66;100.00;55571.53;5114169;28;20051;-71
2023/07/03 06:53:06;;;;;;;24.13;18.38;;;;;;;-140.66;100.00;55571.53;5114958;28;20507;-72
2023/07/03 06:55:59;;;;;;;22.98;18.25;;;;;;;-140.66;100.00;55571.53;5114423;28;20332;-71
2023/07/03 06:58:47;;;;;;;23.25;17.98;;;;;;;-140.66;100.00;55571.53;5098869;28;20340;-71
2023/07/03 07:01:33;;;;;;;23.85;18.25;;;;;;;-140.66;100.00;55571.53;5113757;28;20032;-72
2023/07/03 07:04:19;;;;;;;23.40;17.88;;;;;;;-140.66;100.00;55571.53;5113947;28;20027;-71
2023/07/03 07:07:05;;;;;;;20.58;17.83;;;;;;;-140.66;100.00;55571.53;5115132;28;20500;-71
2023/07/03 07:09:50;;;;;;;24.85;16.52;;;;;;;-140.66;100.00;55571.53;5115064;28;20042;-71
2023/07/03 07:12:36;;;;;;;20.33;16.23;;;;;;;-140.66;100.00;55571.53;5115005;28;20102;-71
2023/07/03 07:15:22;;;;;;;20.55;16.80;;;;;;;-140.66;100.00;55571.53;5114672;28;20034;-71
2023/07/03 07:18:08;;;;;;;20.55;16.63;;;;;;;-140.66;100.00;55571.53;5114802;28;20517;-71
2023/07/03 07:20:54;;;;;;;24.30;17.02;;;;;;;-140.66;100.00;55571.53;5100378;28;20111;-70
2023/07/03 07:23:40;;;;;;;18.40;16.40;;;;;;;-140.66;100.00;55571.53;5118286;28;20032;-70
2023/07/03 07:26:33;;;;;;;20.98;17.02;;;;;;;-140.66;100.00;55571.53;5128272;28;20030;-72
2023/07/03 07:29:19;;;;;;;21.30;16.95;;;;;;;-140.66;100.00;55571.53;5123669;28;20042;-71
2023/07/03 07:32:06;;;;;;;19.75;17.02;;;;;;;-140.66;100.00;55571.53;5102163;28;20020;-71
2023/07/03 07:34:52;;;;;;;19.63;15.20;;;;;;;-140.66;100.00;55571.53;5113412;28;20341;-70
2023/07/03 07:37:37;;;;;;;19.90;15.90;;;;;;;-140.66;100.00;55571.53;5114623;28;20400;-70
2023/07/03 07:40:23;;;;;;;19.17;16.38;;;;;;;-140.66;100.00;55571.53;5114637;28;20379;-71
2023/07/03 07:43:09;;;;;;;22.73;16.38;;;;;;;-140.66;100.00;55571.53;5115012;28;20451;-70
2023/07/03 07:45:54;;;;;;;17.55;15.57;;;;;;;-140.66;100.00;55571.53;5115225;28;20363;-70
2023/07/03 07:48:40;;;;;;;22.50;15.38;;;;;;;-140.66;100.00;55571.53;5114779;28;20024;-70
2023/07/03 07:51:27;;;;;;;23.08;15.90;;;;;;;-140.66;100.00;55571.53;5113218;28;20016;-70
2023/07/03 07:54:12;;;;;;;21.92;16.25;;;;;;;-140.66;100.00;55571.53;5113317;28;20466;-71
2023/07/03 07:56:58;;;;;;;23.73;15.50;;;;;;;-140.66;100.00;55571.53;5114247;28;20070;-71
2023/07/03 07:59:44;;;;;;;18.05;15.05;;;;;;;-140.66;100.00;55571.53;5103786;28;20034;-70
2023/07/03 08:02:29;;;;;;;16.67;14.63;;;;;;;-140.66;100.00;55571.53;5118617;28;20058;-71
2023/07/03 08:05:15;;;;;;;19.45;14.73;;;;;;;-140.66;100.00;55571.53;5118120;28;20044;-70
2023/07/03 08:08:01;;;;;;;18.77;15.18;;;;;;;-140.66;100.00;55571.53;5117929;28;20020;-71
2023/07/03 08:10:55;;;;;;;15.52;13.82;;;;;;;-140.66;100.00;55571.53;5118075;28;20016;-70
2023/07/03 08:13:41;;;;;;;17.90;14.68;;;;;;;-140.66;100.00;55571.53;5117119;28;20027;-72
2023/07/03 08:16:26;;;;;;;17.05;13.98;;;;;;;-140.66;100.00;55571.53;5116484;28;20039;-72
2023/07/03 08:19:12;;;;;;;17.50;13.60;;;;;;;-140.66;100.00;55571.53;5117654;28;20082;-71
2023/07/03 08:21:58;;;;;;;19.95;13.63;;;;;;;-140.66;100.00;55571.53;5103794;28;20067;-72
2023/07/03 08:24:44;;;;;;;16.13;13.32;;;;;;;-140.66;100.00;55571.53;5116406;28;20422;-71
2023/07/03 08:27:30;;;;;;;20.52;14.82;;;;;;;-140.66;100.00;55571.53;5118205;28;20118;-72
2023/07/03 08:30:16;;;;;;;19.73;14.20;;;;;;;-140.66;100.00;55571.53;5116754;28;20122;-72
2023/07/03 08:33:02;;;;;;;15.13;12.88;;;;;;;-140.66;100.00;55571.53;5116758;28;20122;-71
2023/07/03 08:35:47;;;;;;;21.65;13.43;;;;;;;-140.66;100.00;55571.53;5116695;28;20035;-71
2023/07/03 08:38:33;;;;;;;19.85;13.65;;;;;;;-140.66;100.00;55571.53;5117871;28;20040;-70
2023/07/03 08:41:19;;;;;;;22.20;13.38;;;;;;;-140.66;100.00;55571.53;5116624;28;20115;-70
2023/07/03 08:44:08;;;;;;;15.25;12.40;;;;;;;-140.66;100.00;55571.53;5116852;28;20034;-70
2023/07/03 08:46:58;;;;;;;15.30;12.15;;;;;;;-140.66;100.00;55571.53;5116760;28;20074;-70
2023/07/03 08:49:46;;;;;;;17.77;12.25;;;;;;;-140.66;100.00;55571.53;5116201;28;20058;-70
2023/07/03 08:53:03;;;;;;;33.70;12.93;;;;;;;-140.66;100.00;55571.53;5100726;28;20020;-71
2023/07/03 08:56:14;;;;;;;15.95;12.40;;;;;;;-140.66;100.00;55571.53;5116282;28;20061;-71
2023/07/03 08:59:02;;;;;;;16.38;12.65;;;;;;;-140.66;100.00;55571.53;5116174;28;20027;-71
2023/07/03 09:01:56;;;;;;;12.93;11.63;;;;;;;-140.66;100.00;55571.53;5115632;28;20039;-70
2023/07/03 09:05:06;;;;;;;14.10;11.88;;;;;;;-140.66;100.00;55571.53;5103150;28;20048;-70
2023/07/03 09:07:56;;;;;;;16.05;12.27;;;;;;;-140.66;100.00;55571.53;5116390;28;20027;-70
2023/07/03 09:10:49;;;;;;;20.92;12.10;;;;;;;-140.66;100.00;55571.53;5116146;28;20107;-70
2023/07/03 09:13:42;;;;;;;16.55;12.20;;;;;;;-140.66;100.00;55571.53;5117477;28;20112;-70
2023/07/03 09:16:28;;;;;;;12.43;11.13;;;;;;;-140.66;100.00;55571.53;5116209;28;20027;-70
2023/07/03 09:19:20;;;;;;;12.85;11.45;;;;;;;-140.66;100.00;55571.53;5115879;28;20051;-71
2023/07/03 09:22:14;;;;;;;16.55;11.52;;;;;;;-140.66;100.00;55571.53;5102121;28;20028;-71
2023/07/03 09:25:04;;;;;;;14.23;11.60;;;;;;;-140.66;100.00;55571.53;5116261;28;20424;-70
2023/07/03 09:27:53;;;;;;;13.80;11.75;;;;;;;-140.66;100.00;55571.53;5115183;28;20097;-71
2023/07/03 09:30:39;;;;;;;16.35;12.93;;;;;;;-140.66;100.00;55571.53;5115079;28;20084;-71
2023/07/03 09:33:25;;;;;;;16.83;12.43;;;;;;;-140.66;100.00;55571.53;5116253;28;20038;-71
2023/07/03 09:36:34;;;;;;;17.30;12.60;;;;;;;-140.66;100.00;55571.53;5115844;28;20047;-71
2023/07/03 09:39:20;;;;;;;15.43;12.20;;;;;;;-140.66;100.00;55571.53;5115363;28;20030;-70
2023/07/03 09:42:07;;;;;;;12.55;11.25;;;;;;;-140.66;100.00;55571.53;5116599;28;20341;-72
2023/07/03 09:44:52;;;;;;;13.57;11.77;;;;;;;-140.66;100.00;55571.53;5115930;28;20414;-71
2023/07/03 09:47:41;;;;;;;15.65;11.88;;;;;;;-140.66;100.00;55571.53;5114778;28;20364;-71
2023/07/03 09:50:39;;;;;;;12.70;11.18;;;;;;;-140.66;100.00;55571.53;5115560;28;20031;-71
2023/07/03 09:53:26;;;;;;;14.63;11.43;;;;;;;-140.66;100.00;55571.53;5114854;28;20042;-71
2023/07/03 09:56:21;;;;;;;15.45;10.82;;;;;;;-140.66;100.00;55571.53;5116392;28;20028;-71
2023/07/03 09:59:09;;;;;;;19.77;11.85;;;;;;;-140.66;100.00;55571.53;5115206;28;20364;-71
2023/07/03 10:01:58;;;;;;;17.42;10.40;;;;;;;-140.66;100.00;55571.53;5116225;28;20440;-70
2023/07/03 10:04:45;;;;;;;15.05;11.20;;;;;;;-140.66;100.00;55571.53;5114933;28;20341;-70
2023/07/03 10:07:41;;;;;;;15.68;10.63;;;;;;;-140.66;100.00;55571.53;5114793;28;20027;-70
2023/07/03 10:10:28;;;;;;;15.50;10.95;;;;;;;-140.66;100.00;55571.53;5093877;28;20034;-71
2023/07/03 10:13:23;;;;;;;13.05;10.35;;;;;;;-140.66;100.00;55571.53;5115363;28;20031;-71
2023/07/03 10:16:11;;;;;;;11.38;10.18;;;;;;;-140.66;100.00;55571.53;5114799;28;20111;-72
2023/07/03 10:18:58;;;;;;;16.00;10.30;;;;;;;-140.66;100.00;55571.53;5101332;28;20055;-71
2023/07/03 10:21:44;;;;;;;13.80;10.25;;;;;;;-140.66;100.00;55571.53;5115099;28;20023;-72
2023/07/03 10:24:32;;;;;;;11.05;9.60;;;;;;;-140.66;100.00;55571.53;5123937;27;20038;-70
2023/07/03 10:27:21;;;;;;;12.95;9.25;;;;;;;-140.66;100.00;55571.53;5134554;27;20027;-71
2023/07/03 10:30:15;;;;;;;13.45;9.30;;;;;;;-140.66;100.00;55571.53;5094397;28;20043;-70
2023/07/03 10:33:05;;;;;;;12.80;9.00;;;;;;;-140.66;100.00;55571.53;5093830;28;20016;-71
2023/07/03 10:35:51;;;;;;;11.55;9.77;;;;;;;-140.66;100.00;55571.53;5095160;28;20490;-70
2023/07/03 10:38:46;;;;;;;14.27;10.40;;;;;;;-140.66;100.00;55571.53;5094947;28;20043;-70
2023/07/03 10:41:43;;;;;;;10.65;9.55;;;;;;;-140.66;100.00;55571.53;5094705;28;20062;-71
2023/07/03 10:44:33;;;;;;;11.23;9.63;;;;;;;-140.66;100.00;55571.53;5094457;28;20047;-71
2023/07/03 10:47:27;;;;;;;11.85;9.90;;;;;;;-140.66;100.00;55571.53;5095013;28;20069;-71
2023/07/03 10:50:16;;;;;;;10.68;9.20;;;;;;;-140.66;100.00;55571.53;5093731;28;20374;-71
2023/07/03 10:53:17;;;;;;;12.48;8.60;;;;;;;-140.66;100.00;55571.53;5093623;28;20367;-72
2023/07/03 10:56:37;;;;;;;11.88;8.05;;;;;;;-140.66;100.00;55571.53;5095009;28;20023;-71
2023/07/03 10:59:28;;;;;;;9.85;7.47;;;;;;;-140.66;100.00;55571.53;5093573;28;20062;-72
2023/07/03 11:02:17;;;;;;;9.60;7.53;;;;;;;-140.66;100.00;55571.53;5093222;28;20038;-71
2023/07/03 11:05:19;;;;;;;10.45;7.93;;;;;;;-140.66;100.00;55571.53;5103360;28;20106;-70
2023/07/03 11:08:08;;;;;;;15.15;9.52;;;;;;;-140.66;100.00;55571.53;5114062;28;20042;-70
2023/07/03 11:11:18;;;;;;;15.55;9.30;;;;;;;-140.66;100.00;55571.53;5114042;28;20497;-70
2023/07/03 11:14:36;;;;;;;10.88;9.63;;;;;;;-140.66;100.00;55571.53;5113194;28;20032;-69
2023/07/03 11:17:41;;;;;;;16.48;10.40;;;;;;;-140.66;100.00;55571.53;5107711;28;20368;-71
2023/07/03 11:20:40;;;;;;;13.20;10.13;;;;;;;-140.66;100.00;55571.53;5112955;28;20046;-72
2023/07/03 11:24:11;;;;;;;15.48;9.77;;;;;;;-140.66;100.00;55571.53;5113694;28;20027;-70
2023/07/03 11:27:25;;;;;;;17.50;9.95;;;;;;;-140.66;100.00;55571.53;5114403;28;20048;-70
2023/07/03 11:30:12;;;;;;;17.55;10.20;;;;;;;-140.66;100.00;55571.53;5113606;28;20501;-71
2023/07/03 11:33:02;;;;;;;12.00;9.77;;;;;;;-140.66;100.00;55571.53;5114329;28;20024;-72
2023/07/03 11:35:56;;;;;;;11.88;9.55;;;;;;;-140.66;100.00;55571.53;5113510;28;20047;-71
2023/07/03 11:39:22;;;;;;;10.70;9.60;;;;;;;-140.66;100.00;55571.53;5113519;28;20366;-71
2023/07/03 11:42:09;;;;;;;11.57;9.95;;;;;;;-140.66;100.00;55571.53;5099025;28;20032;-71
2023/07/03 11:45:00;;;;;;;12.18;10.48;;;;;;;-140.66;100.00;55571.53;5113706;28;20028;-70
2023/07/03 11:47:46;;;;;;;19.77;10.60;;;;;;;-140.66;100.00;55571.53;5113605;28;20367;-72
2023/07/03 11:50:33;;;;;;;18.02;10.35;;;;;;;-140.66;100.00;55571.53;5113804;28;20352;-69
2023/07/03 11:53:53;;;;;;;11.55;9.73;;;;;;;-140.66;100.00;55571.53;5099628;28;20100;-70
2023/07/03 11:56:46;;;;;;;12.02;10.25;;;;;;;-140.66;100.00;55571.53;5082285;28;20428;-70
2023/07/03 11:59:38;;;;;;;12.52;10.13;;;;;;;-140.66;100.00;55571.53;5115138;28;20024;-70
2023/07/03 12:02:27;;;;;;;11.07;9.60;;;;;;;-140.66;100.00;55571.53;5114438;28;20027;-70
2023/07/03 12:05:42;;;;;;;13.00;9.48;;;;;;;-140.66;100.00;55571.53;5114553;28;20055;-70
2023/07/03 12:08:48;;;;;;;11.93;9.88;;;;;;;-140.66;100.00;55571.53;5114050;28;20031;-70
2023/07/03 12:12:14;;;;;;;12.52;9.07;;;;;;;-140.66;100.00;55571.53;5113669;28;20031;-71
2023/07/03 12:15:09;;;;;;;11.00;9.90;;;;;;;-140.66;100.00;55571.53;5113729;28;20031;-70
2023/07/03 12:18:01;;;;;;;12.98;9.27;;;;;;;-140.66;100.00;55571.53;5113370;28;20363;-71
2023/07/03 12:20:47;;;;;;;12.43;9.50;;;;;;;-140.66;100.00;55571.53;5099107;28;20051;-71
2023/07/03 12:23:38;;;;;;;11.20;9.02;;;;;;;-140.66;100.00;55571.53;5114125;28;20049;-71
2023/07/03 12:26:24;;;;;;;10.35;9.10;;;;;;;-140.66;100.00;55571.53;5099236;28;20055;-71
2023/07/03 12:29:09;;;;;;;10.90;8.60;;;;;;;-140.66;100.00;55571.53;5097072;28;20028;-70
2023/07/03 12:31:57;;;;;;;10.98;8.52;;;;;;;-140.66;100.00;55571.53;5099522;28;20025;-70
2023/07/03 12:34:43;;;;;;;12.63;8.77;;;;;;;-140.66;100.00;55571.53;5113641;28;20019;-70